createdAt,value
2022-12-03T00:00:43.345Z,59.70
2022-12-03T00:03:10.236Z,59.60
2022-12-03T00:05:37.029Z,59.50
2022-12-03T00:08:03.964Z,59.50
2022-12-03T00:10:31.069Z,59.50
2022-12-03T00:12:57.917Z,59.70
2022-12-03T00:15:24.708Z,60.20
2022-12-03T00:17:51.450Z,59.60
2022-12-03T00:20:23.515Z,59.50
2022-12-03T00:22:50.664Z,59.60
2022-12-03T00:25:18.184Z,59.60
2022-12-03T00:27:45.016Z,59.50
2022-12-03T00:30:12.476Z,59.60
2022-12-03T00:32:39.265Z,59.60
2022-12-03T00:35:06.415Z,59.60
2022-12-03T00:37:35.130Z,59.70
2022-12-03T00:40:03.596Z,59.70
2022-12-03T00:42:30.427Z,59.80
2022-12-03T00:44:57.318Z,59.80
2022-12-03T00:47:24.013Z,59.80
2022-12-03T00:49:51.722Z,59.80
2022-12-03T00:52:18.667Z,59.90
2022-12-03T00:54:45.511Z,60.00
2022-12-03T00:57:12.455Z,59.90
2022-12-03T00:59:39.103Z,59.90
2022-12-03T01:02:05.992Z,59.90
2022-12-03T01:04:33.936Z,59.90
2022-12-03T01:07:01.464Z,59.90
2022-12-03T01:09:28.204Z,60.00
2022-12-03T01:11:54.997Z,59.90
2022-12-03T01:14:21.941Z,60.00
2022-12-03T01:16:49.245Z,59.90
2022-12-03T01:19:17.215Z,59.90
2022-12-03T01:21:50.100Z,60.00
2022-12-03T01:24:18.222Z,60.10
2022-12-03T01:26:45.220Z,60.20
2022-12-03T01:29:12.011Z,60.10
2022-12-03T01:31:57.285Z,60.20
2022-12-03T01:34:24.025Z,60.00
2022-12-03T01:36:52.558Z,60.30
2022-12-03T01:39:19.619Z,60.10
2022-12-03T01:41:48.132Z,60.20
2022-12-03T01:44:19.741Z,60.20
2022-12-03T01:46:47.705Z,60.20
2022-12-03T01:49:19.059Z,60.10
2022-12-03T01:51:46.676Z,60.20
2022-12-03T01:54:20.904Z,60.20
2022-12-03T01:56:48.190Z,60.30
2022-12-03T01:59:18.056Z,60.30
2022-12-03T02:01:45.048Z,60.30
2022-12-03T02:04:16.414Z,60.20
2022-12-03T02:06:44.573Z,60.20
2022-12-03T02:09:12.439Z,60.30
2022-12-03T02:11:44.456Z,60.20
2022-12-03T02:14:16.159Z,60.30
2022-12-03T02:16:43.841Z,60.40
2022-12-03T02:19:21.688Z,60.40
2022-12-03T02:22:04.429Z,60.40
2022-12-03T02:24:56.251Z,60.30
2022-12-03T02:27:23.533Z,60.40
2022-12-03T02:29:50.721Z,60.50
2022-12-03T02:32:17.578Z,60.60
2022-12-03T02:34:45.852Z,60.60
2022-12-03T02:37:18.777Z,60.70
2022-12-03T02:39:54.732Z,60.70
2022-12-03T02:42:37.000Z,60.70
2022-12-03T02:45:26.921Z,60.60
2022-12-03T02:48:02.526Z,60.60
2022-12-03T02:50:32.791Z,60.70
2022-12-03T02:53:02.967Z,60.90
2022-12-03T02:55:36.559Z,60.70
2022-12-03T02:58:05.148Z,60.60
2022-12-03T03:00:32.756Z,60.60
2022-12-03T03:03:00.859Z,60.60
2022-12-03T03:05:27.929Z,60.70
2022-12-03T03:07:56.410Z,60.90
2022-12-03T03:10:24.024Z,60.90
2022-12-03T03:12:54.042Z,61.00
2022-12-03T03:15:21.598Z,61.00
2022-12-03T03:17:48.450Z,60.90
2022-12-03T03:20:15.545Z,61.00
2022-12-03T03:22:43.063Z,61.00
2022-12-03T03:25:15.278Z,60.80
2022-12-03T03:27:42.621Z,60.90
2022-12-03T03:30:11.614Z,60.90
2022-12-03T03:32:39.482Z,60.90
2022-12-03T03:35:07.338Z,60.90
2022-12-03T03:37:34.601Z,60.80
2022-12-03T03:40:01.901Z,60.70
2022-12-03T03:42:28.849Z,60.90
2022-12-03T03:44:55.834Z,61.00
2022-12-03T03:47:23.852Z,61.00
2022-12-03T03:49:50.874Z,60.90
2022-12-03T03:52:19.755Z,60.90
2022-12-03T03:54:47.319Z,60.90
2022-12-03T03:57:14.339Z,61.00
2022-12-03T03:59:41.347Z,60.90
2022-12-03T04:02:19.057Z,60.90
2022-12-03T04:04:46.050Z,61.10
2022-12-03T04:07:13.047Z,61.10
2022-12-03T04:09:39.805Z,61.10
2022-12-03T04:12:25.154Z,61.10
2022-12-03T04:14:52.414Z,61.10
2022-12-03T04:17:19.363Z,61.00
2022-12-03T04:19:46.051Z,61.00
2022-12-03T04:22:32.729Z,61.00
2022-12-03T04:25:18.038Z,61.00
2022-12-03T04:28:11.626Z,61.00
2022-12-03T04:30:38.422Z,61.10
2022-12-03T04:33:23.929Z,61.10
2022-12-03T04:35:50.866Z,61.10
2022-12-03T04:38:17.716Z,61.10
2022-12-03T04:41:03.194Z,61.10
2022-12-03T04:43:34.800Z,61.10
2022-12-03T04:46:02.171Z,61.10
2022-12-03T04:48:29.049Z,61.10
2022-12-03T04:50:55.791Z,61.10
2022-12-03T04:53:22.580Z,61.10
2022-12-03T04:55:49.474Z,61.10
2022-12-03T04:58:16.162Z,61.10
2022-12-03T05:00:42.906Z,61.10
2022-12-03T05:03:09.765Z,61.10
2022-12-03T05:05:36.695Z,61.00
2022-12-03T05:08:03.515Z,61.10
2022-12-03T05:10:30.326Z,61.10
2022-12-03T05:12:57.323Z,60.90
2022-12-03T05:15:24.207Z,60.90
2022-12-03T05:17:50.956Z,61.60
2022-12-03T05:20:36.642Z,61.00
2022-12-03T05:23:03.422Z,61.00
2022-12-03T05:25:30.277Z,61.00
2022-12-03T05:27:56.966Z,61.00
2022-12-03T05:30:23.841Z,61.00
2022-12-03T05:32:50.745Z,61.00
2022-12-03T05:35:17.902Z,61.00
2022-12-03T05:37:44.643Z,61.10
2022-12-03T05:40:12.509Z,61.10
2022-12-03T05:42:54.457Z,61.00
2022-12-03T05:45:26.073Z,61.00
2022-12-03T05:47:54.197Z,60.90
2022-12-03T05:50:22.639Z,61.00
2022-12-03T05:52:49.816Z,60.90
2022-12-03T05:55:17.785Z,60.90
2022-12-03T05:57:44.771Z,60.80
2022-12-03T06:00:22.941Z,60.80
2022-12-03T06:02:49.758Z,60.90
2022-12-03T06:05:19.513Z,60.80
2022-12-03T06:07:47.933Z,60.90
2022-12-03T06:10:17.858Z,61.00
2022-12-03T06:12:45.038Z,60.90
2022-12-03T06:15:12.291Z,60.90
2022-12-03T06:17:38.971Z,60.90
2022-12-03T06:20:06.502Z,60.90
2022-12-03T06:22:33.281Z,60.70
2022-12-03T06:25:06.173Z,60.60
2022-12-03T06:27:33.980Z,60.60
2022-12-03T06:30:00.780Z,60.70
2022-12-03T06:32:27.409Z,60.60
2022-12-03T06:34:54.537Z,60.60
2022-12-03T06:37:21.454Z,60.60
2022-12-03T06:39:48.060Z,60.60
2022-12-03T06:42:14.882Z,60.60
2022-12-03T06:44:41.637Z,60.40
2022-12-03T06:47:08.364Z,60.30
2022-12-03T06:49:35.054Z,60.50
2022-12-03T06:52:01.896Z,60.50
2022-12-03T06:54:28.792Z,60.50
2022-12-03T06:56:55.553Z,60.60
2022-12-03T06:59:22.403Z,60.60
2022-12-03T07:01:49.372Z,60.40
2022-12-03T07:04:16.162Z,60.50
2022-12-03T07:06:42.994Z,60.30
2022-12-03T07:09:09.826Z,60.40
2022-12-03T07:11:42.270Z,60.40
2022-12-03T07:14:10.960Z,60.50
2022-12-03T07:16:38.572Z,60.30
2022-12-03T07:19:06.640Z,60.20
2022-12-03T07:21:33.430Z,60.20
2022-12-03T07:24:00.397Z,60.30
2022-12-03T07:26:27.271Z,60.10
2022-12-03T07:28:54.112Z,60.10
2022-12-03T07:31:20.869Z,60.30
2022-12-03T07:33:47.695Z,60.30
2022-12-03T07:36:14.438Z,60.40
2022-12-03T07:38:41.195Z,60.40
2022-12-03T07:41:08.089Z,60.40
2022-12-03T07:43:34.914Z,60.30
2022-12-03T07:46:01.764Z,60.20
2022-12-03T07:48:28.587Z,60.30
2022-12-03T07:50:55.390Z,60.30
2022-12-03T07:53:22.238Z,60.20
2022-12-03T07:55:49.076Z,60.20
2022-12-03T07:58:15.790Z,60.20
2022-12-03T08:00:42.593Z,60.20
2022-12-03T08:03:09.349Z,60.10
2022-12-03T08:05:36.202Z,60.10
2022-12-03T08:08:03.056Z,60.30
2022-12-03T08:10:29.902Z,60.30
2022-12-03T08:12:58.978Z,60.20
2022-12-03T08:15:31.152Z,60.10
2022-12-03T08:18:12.208Z,60.20
2022-12-03T08:20:41.100Z,60.30
2022-12-03T08:23:19.726Z,60.40
2022-12-03T08:25:48.573Z,60.40
2022-12-03T08:28:21.402Z,60.40
2022-12-03T08:30:59.353Z,60.40
2022-12-03T08:33:36.752Z,60.30
2022-12-03T08:36:13.888Z,60.30
2022-12-03T08:38:40.886Z,60.30
2022-12-03T08:41:14.529Z,60.30
2022-12-03T08:43:43.733Z,60.30
2022-12-03T08:46:17.784Z,60.30
2022-12-03T08:48:49.200Z,60.40
2022-12-03T08:51:25.475Z,60.40
2022-12-03T08:54:01.810Z,60.40
2022-12-03T08:56:30.553Z,60.50
2022-12-03T08:59:18.186Z,60.30
2022-12-03T09:01:47.108Z,60.50
2022-12-03T09:04:27.123Z,60.50
2022-12-03T09:06:54.624Z,60.40
2022-12-03T09:09:22.039Z,60.50
2022-12-03T09:11:49.500Z,60.60
2022-12-03T09:14:18.878Z,60.40
2022-12-03T09:16:46.031Z,60.40
2022-12-03T09:19:12.803Z,60.30
2022-12-03T09:21:39.546Z,60.40
2022-12-03T09:24:07.765Z,60.40
2022-12-03T09:26:34.599Z,60.30
2022-12-03T09:29:01.452Z,60.40
2022-12-03T09:31:28.381Z,60.40
2022-12-03T09:33:55.142Z,60.30
2022-12-03T09:36:22.050Z,60.30
2022-12-03T09:38:48.929Z,60.40
2022-12-03T09:41:15.883Z,60.30
2022-12-03T09:44:03.322Z,60.30
2022-12-03T09:46:30.329Z,60.40
2022-12-03T09:48:57.484Z,60.40
2022-12-03T09:51:31.495Z,60.30
2022-12-03T09:54:00.255Z,60.20
2022-12-03T09:56:27.076Z,60.20
2022-12-03T09:58:54.380Z,60.10
2022-12-03T10:01:21.891Z,60.20
2022-12-03T10:03:51.088Z,60.20
2022-12-03T10:06:23.254Z,60.10
2022-12-03T10:08:54.547Z,60.10
2022-12-03T10:11:24.865Z,60.70
2022-12-03T10:13:54.590Z,60.10
2022-12-03T10:16:21.825Z,60.10
2022-12-03T10:18:54.005Z,60.00
2022-12-03T10:21:25.916Z,59.90
2022-12-03T10:24:17.766Z,59.90
2022-12-03T10:26:46.379Z,60.00
2022-12-03T10:29:34.095Z,59.90
2022-12-03T10:32:07.698Z,60.00
2022-12-03T10:34:36.605Z,60.60
2022-12-03T10:37:12.605Z,60.00
2022-12-03T10:39:56.337Z,60.10
2022-12-03T10:42:28.941Z,60.00
2022-12-03T10:45:07.970Z,60.00
2022-12-03T10:47:34.933Z,60.00
2022-12-03T10:50:04.489Z,60.00
2022-12-03T10:52:31.572Z,60.00
2022-12-03T10:54:58.810Z,60.00
2022-12-03T10:57:25.813Z,60.00
2022-12-03T10:59:52.656Z,60.00
2022-12-03T11:02:22.616Z,60.00
2022-12-03T11:04:50.375Z,60.00
2022-12-03T11:07:21.932Z,59.90
2022-12-03T11:09:51.135Z,60.00
2022-12-03T11:12:19.935Z,59.80
2022-12-03T11:14:54.074Z,59.90
2022-12-03T11:17:50.793Z,59.90
2022-12-03T11:20:22.925Z,59.90
2022-12-03T11:22:53.524Z,59.90
2022-12-03T11:25:26.997Z,59.80
2022-12-03T11:28:12.405Z,59.80
2022-12-03T11:30:51.280Z,59.90
2022-12-03T11:33:41.034Z,59.80
2022-12-03T11:36:11.893Z,60.10
2022-12-03T11:38:39.198Z,59.90
2022-12-03T11:41:21.044Z,59.90
2022-12-03T11:43:56.182Z,59.80
2022-12-03T11:46:27.677Z,59.70
2022-12-03T11:48:57.030Z,59.90
2022-12-03T11:51:26.331Z,59.70
2022-12-03T11:53:55.991Z,59.70
2022-12-03T11:56:28.567Z,59.60
2022-12-03T11:59:02.888Z,59.60
2022-12-03T12:01:40.992Z,59.60
2022-12-03T12:04:26.747Z,59.60
2022-12-03T12:06:53.793Z,59.50
2022-12-03T12:09:53.014Z,59.50
2022-12-03T12:12:42.676Z,59.50
2022-12-03T12:15:41.678Z,59.60
2022-12-03T12:18:42.761Z,59.60
2022-12-03T12:21:43.605Z,59.70
2022-12-03T12:24:30.400Z,59.60
2022-12-03T12:27:01.451Z,59.50
2022-12-03T12:29:28.600Z,59.50
2022-12-03T12:32:20.470Z,59.50
2022-12-03T12:34:49.617Z,59.50
2022-12-03T12:37:36.581Z,59.50
2022-12-03T12:40:12.852Z,59.30
2022-12-03T12:42:50.030Z,59.40
2022-12-03T12:45:18.672Z,59.30
2022-12-03T12:48:09.930Z,60.10
2022-12-03T12:50:44.506Z,59.40
2022-12-03T12:53:11.196Z,59.40
2022-12-03T12:55:41.309Z,59.20
2022-12-03T12:58:15.085Z,59.30
2022-12-03T13:00:42.772Z,59.10
2022-12-03T13:03:12.797Z,59.20
2022-12-03T13:05:46.941Z,59.20
2022-12-03T13:08:31.933Z,59.20
2022-12-03T13:11:01.246Z,59.10
2022-12-03T13:13:43.993Z,59.10
2022-12-03T13:16:25.712Z,59.00
2022-12-03T13:18:57.140Z,59.00
2022-12-03T13:21:43.899Z,59.10
2022-12-03T13:24:59.358Z,59.00
2022-12-03T13:27:29.637Z,58.80
2022-12-03T13:30:00.944Z,58.90
2022-12-03T13:32:38.240Z,58.80
2022-12-03T13:35:16.200Z,59.00
2022-12-03T13:37:43.292Z,58.90
2022-12-03T13:40:31.642Z,58.80
2022-12-03T13:42:59.046Z,58.60
2022-12-03T13:45:36.267Z,58.70
2022-12-03T13:48:23.229Z,58.80
2022-12-03T13:50:52.399Z,58.80
2022-12-03T13:53:26.771Z,58.90
2022-12-03T13:56:22.586Z,58.90
2022-12-03T13:58:49.378Z,58.90
2022-12-03T14:01:16.129Z,58.70
2022-12-03T14:03:42.910Z,58.80
2022-12-03T14:06:09.661Z,58.80
2022-12-03T14:08:37.415Z,58.90
2022-12-03T14:11:04.308Z,58.80
2022-12-03T14:13:31.048Z,58.90
2022-12-03T14:15:57.914Z,58.90
2022-12-03T14:18:24.638Z,58.80
2022-12-03T14:20:51.355Z,59.00
2022-12-03T14:23:18.112Z,59.00
2022-12-03T14:25:45.059Z,59.10
2022-12-03T14:28:11.927Z,59.10
2022-12-03T14:30:38.713Z,59.00
2022-12-03T14:33:05.589Z,59.00
2022-12-03T14:35:32.635Z,59.00
2022-12-03T14:37:59.377Z,59.20
2022-12-03T14:40:26.395Z,59.20
2022-12-03T14:42:53.052Z,59.20
2022-12-03T14:45:20.882Z,59.10
2022-12-03T14:47:47.564Z,59.10
2022-12-03T14:50:14.929Z,59.10
2022-12-03T14:52:41.967Z,59.10
2022-12-03T14:55:09.174Z,59.00
2022-12-03T14:57:35.857Z,59.00
2022-12-03T15:00:02.853Z,59.10
2022-12-03T15:02:30.407Z,59.00
2022-12-03T15:04:57.356Z,59.20
2022-12-03T15:07:24.250Z,59.20
2022-12-03T15:09:51.110Z,59.20
2022-12-03T15:12:17.942Z,59.30
2022-12-03T15:14:44.729Z,59.20
2022-12-03T15:17:11.512Z,59.10
2022-12-03T15:19:38.364Z,59.30
2022-12-03T15:22:05.109Z,59.20
2022-12-03T15:24:31.894Z,59.30
2022-12-03T15:26:58.774Z,59.20
2022-12-03T15:29:25.478Z,59.30
2022-12-03T15:31:52.256Z,59.30
2022-12-03T15:34:22.877Z,59.30
2022-12-03T15:36:50.361Z,59.30
2022-12-03T15:39:17.099Z,59.40
2022-12-03T15:41:43.788Z,59.30
2022-12-03T15:44:10.697Z,59.30
2022-12-03T15:46:37.589Z,59.20
2022-12-03T15:49:04.381Z,59.20
2022-12-03T15:51:31.273Z,59.30
2022-12-03T15:53:58.063Z,59.30
2022-12-03T15:56:24.958Z,59.10
2022-12-03T15:58:53.481Z,59.10
2022-12-03T16:01:20.349Z,59.10
2022-12-03T16:03:47.269Z,59.00
2022-12-03T16:06:14.891Z,59.00
2022-12-03T16:08:41.727Z,59.10
2022-12-03T16:11:08.564Z,59.10
2022-12-03T16:13:35.371Z,59.30
2022-12-03T16:16:02.376Z,59.30
2022-12-03T16:18:29.350Z,59.20
2022-12-03T16:20:56.204Z,59.30
2022-12-03T16:23:23.036Z,59.20
2022-12-03T16:25:49.899Z,59.20
2022-12-03T16:28:16.875Z,59.30
2022-12-03T16:30:43.885Z,59.20
2022-12-03T16:33:10.836Z,59.40
2022-12-03T16:35:37.741Z,59.40
2022-12-03T16:38:04.508Z,59.40
2022-12-03T16:40:31.446Z,59.40
2022-12-03T16:42:58.332Z,59.50
2022-12-03T16:45:44.281Z,59.50
2022-12-03T16:48:11.073Z,59.50
2022-12-03T16:50:38.072Z,59.40
2022-12-03T16:53:04.810Z,59.40
2022-12-03T16:55:31.712Z,59.30
2022-12-03T16:57:58.497Z,59.40
2022-12-03T17:00:25.910Z,59.40
2022-12-03T17:02:52.853Z,59.40
2022-12-03T17:05:19.917Z,59.40
2022-12-03T17:07:46.772Z,59.50
2022-12-03T17:10:13.861Z,59.50
2022-12-03T17:13:07.835Z,59.60
2022-12-03T17:15:27.695Z,59.40
2022-12-03T17:17:54.537Z,59.50
2022-12-03T17:20:21.237Z,59.40
2022-12-03T17:22:47.973Z,59.50
2022-12-03T17:25:14.817Z,59.50
2022-12-03T17:27:45.181Z,59.30
2022-12-03T17:30:13.545Z,59.40
2022-12-03T17:32:40.585Z,59.30
2022-12-03T17:35:08.171Z,59.40
2022-12-03T17:37:35.218Z,59.50
2022-12-03T17:40:02.680Z,59.40
2022-12-03T17:42:29.314Z,59.60
2022-12-03T17:44:56.196Z,59.60
2022-12-03T17:47:22.958Z,59.40
2022-12-03T17:49:49.640Z,59.50
2022-12-03T17:52:16.428Z,59.50
2022-12-03T17:55:08.948Z,59.50
2022-12-03T17:57:29.881Z,59.40
2022-12-03T17:59:57.151Z,59.50
2022-12-03T18:02:24.232Z,59.40
2022-12-03T18:04:51.081Z,59.50
2022-12-03T18:07:17.966Z,59.50
2022-12-03T18:09:44.765Z,59.50
2022-12-03T18:12:11.550Z,59.50
2022-12-03T18:14:38.340Z,59.60
2022-12-03T18:17:05.141Z,59.50
2022-12-03T18:19:31.938Z,59.60
2022-12-03T18:21:58.681Z,59.50
2022-12-03T18:24:25.661Z,59.50
2022-12-03T18:26:52.413Z,59.40
2022-12-03T18:29:19.141Z,59.50
2022-12-03T18:31:46.247Z,59.50
2022-12-03T18:34:14.210Z,59.40
2022-12-03T18:36:41.006Z,59.40
2022-12-03T18:39:10.818Z,59.40
2022-12-03T18:41:37.487Z,59.50
2022-12-03T18:44:09.517Z,59.50
2022-12-03T18:46:53.895Z,59.50
2022-12-03T18:49:21.548Z,59.40
2022-12-03T18:51:48.702Z,59.30
2022-12-03T18:54:16.395Z,59.20
2022-12-03T18:56:43.303Z,59.40
2022-12-03T18:59:11.076Z,59.50
2022-12-03T19:01:37.841Z,59.50
2022-12-03T19:04:04.842Z,59.50
2022-12-03T19:06:32.524Z,59.30
2022-12-03T19:08:59.277Z,59.30
2022-12-03T19:11:26.295Z,59.40
2022-12-03T19:13:53.159Z,59.30
2022-12-03T19:16:20.250Z,59.40
2022-12-03T19:18:47.038Z,59.30
2022-12-03T19:21:16.088Z,59.30
2022-12-03T19:24:04.191Z,59.20
2022-12-03T19:26:30.440Z,59.30
2022-12-03T19:28:57.283Z,59.30
2022-12-03T19:31:24.058Z,59.10
2022-12-03T19:33:51.742Z,59.20
2022-12-03T19:36:27.177Z,59.20
2022-12-03T19:38:57.462Z,59.30
2022-12-03T19:41:27.440Z,59.20
2022-12-03T19:43:55.903Z,59.10
2022-12-03T19:46:24.673Z,59.20
2022-12-03T19:48:51.737Z,59.10
2022-12-03T19:51:35.313Z,59.10
2022-12-03T19:54:04.829Z,59.20
2022-12-03T19:56:31.978Z,59.20
2022-12-03T19:58:59.026Z,59.20
2022-12-03T20:01:29.764Z,59.20
2022-12-03T20:03:58.191Z,59.10
2022-12-03T20:06:28.566Z,59.10
2022-12-03T20:08:57.150Z,59.10
2022-12-03T20:11:27.063Z,59.00
2022-12-03T20:13:56.493Z,59.00
2022-12-03T20:16:24.495Z,59.00
2022-12-03T20:18:55.288Z,59.10
2022-12-03T20:21:22.268Z,59.10
2022-12-03T20:23:49.060Z,59.20
2022-12-03T20:26:18.561Z,59.10
2022-12-03T20:28:46.125Z,59.00
2022-12-03T20:31:15.464Z,59.00
2022-12-03T20:33:48.330Z,58.90
2022-12-03T20:36:17.420Z,59.00
2022-12-03T20:38:45.071Z,59.00
2022-12-03T20:41:14.476Z,59.00
2022-12-03T20:43:41.810Z,59.00
2022-12-03T20:46:09.950Z,59.00
2022-12-03T20:48:37.610Z,59.00
2022-12-03T20:51:09.881Z,59.00
2022-12-03T20:53:37.346Z,59.00
2022-12-03T20:56:05.051Z,58.90
2022-12-03T20:58:32.713Z,59.00
2022-12-03T21:01:20.522Z,58.90
2022-12-03T21:03:48.678Z,59.00
2022-12-03T21:06:15.743Z,59.00
2022-12-03T21:08:43.522Z,59.00
2022-12-03T21:11:15.889Z,59.00
2022-12-03T21:13:43.910Z,58.90
2022-12-03T21:19:24.973Z,58.90
2022-12-03T21:21:51.898Z,59.00
2022-12-03T21:24:18.556Z,59.00
2022-12-03T21:26:45.620Z,58.80
2022-12-03T21:29:12.336Z,59.00
2022-12-03T21:31:39.857Z,59.00
2022-12-03T21:34:08.392Z,59.10
2022-12-03T21:36:35.281Z,58.80
2022-12-03T21:39:02.123Z,59.00
2022-12-03T21:41:29.067Z,59.00
2022-12-03T21:43:55.829Z,59.00
2022-12-03T21:47:09.832Z,58.90
2022-12-03T21:49:09.411Z,59.10
2022-12-03T21:51:36.204Z,59.00
2022-12-03T21:54:04.860Z,59.70
2022-12-03T21:56:32.970Z,58.90
2022-12-03T21:58:59.614Z,59.50
2022-12-03T22:01:26.647Z,58.90
2022-12-03T22:03:53.525Z,58.80
2022-12-03T22:06:21.099Z,59.40
2022-12-03T22:08:49.274Z,58.80
2022-12-03T22:11:18.744Z,58.90
2022-12-03T22:13:45.527Z,59.00
2022-12-03T22:16:15.032Z,58.80
2022-12-03T22:18:42.496Z,58.90
2022-12-03T22:21:12.293Z,58.90
2022-12-03T22:23:39.619Z,58.80
2022-12-03T22:26:09.209Z,58.80
2022-12-03T22:28:35.945Z,58.80
2022-12-03T22:31:07.933Z,59.00
2022-12-03T22:33:36.900Z,58.90
2022-12-03T22:36:18.279Z,58.80
2022-12-03T22:38:47.379Z,58.90
2022-12-03T22:41:14.794Z,58.80
2022-12-03T22:43:41.734Z,58.70
2022-12-03T22:46:14.828Z,58.70
2022-12-03T22:48:42.840Z,59.40
2022-12-03T22:51:14.703Z,58.90
2022-12-03T22:53:41.493Z,58.80
2022-12-03T22:56:08.490Z,58.80
2022-12-03T22:58:37.248Z,58.80
2022-12-03T23:01:04.041Z,58.80
2022-12-03T23:03:31.049Z,58.70
2022-12-03T23:05:57.904Z,58.70
2022-12-03T23:08:24.857Z,58.70
2022-12-03T23:10:52.983Z,58.80
2022-12-03T23:13:20.750Z,58.70
2022-12-03T23:15:51.824Z,58.80
2022-12-03T23:18:19.913Z,58.80
2022-12-03T23:20:51.816Z,58.80
2022-12-03T23:23:20.505Z,58.80
2022-12-03T23:26:04.756Z,58.90
2022-12-03T23:28:33.610Z,58.80
2022-12-03T23:31:00.899Z,58.90
2022-12-03T23:33:28.667Z,58.80
2022-12-03T23:35:55.504Z,58.80
2022-12-03T23:38:22.526Z,58.90
2022-12-03T23:40:49.599Z,59.00
2022-12-03T23:43:16.500Z,58.90
2022-12-03T23:45:43.336Z,58.90
2022-12-03T23:48:10.389Z,59.00
2022-12-03T23:50:41.342Z,59.00
2022-12-03T23:53:08.453Z,58.90
2022-12-03T23:55:39.823Z,58.90
2022-12-03T23:58:06.520Z,58.90
